• Join FlightAware (Why Join?)
  • Login
  • US Flag 
02:15AM EDT


 

Airport Tracker/Info


-or-


 

Live Flight TrackerFlight Track Log ✈ KLM1900 ✈ 04-Aug-2014 ✈ EDDV / HAJ - EHAM / AMS

Flight Track Log - Related Links

Times and Time Zones

All times are in EDT time to prevent confusion due to time zone crossing. See the KLM1900 flight status page for this flight to view local times or setup timezone preferences in your user account.

Time Position Orientation Groundspeed Altitude Reporting Facility
EDT Latitude Longitude Course Direction KTS MPH feet Rate Location/Type
02:18AM 52.4535 9.0870 269° West  Level Estimated
02:19AM 52.4511 8.9375 269° West  Level Estimated
02:20AM 52.4478 8.7478 268° West  Level Estimated
02:21AM 52.4443 8.5582 268° West  Level Estimated
02:22AM 52.4404 8.3685 268° West  Level Estimated
02:23AM 52.4362 8.1789 268° West  Level Estimated
02:24AM 52.4317 7.9893 268° West  Level Estimated
02:25AM 52.4269 7.7998 268° West  Level Estimated
02:26AM 52.4218 7.6103 268° West  Level Estimated
02:27AM 52.4164 7.4209 267° West  Level Estimated
02:28AM 52.4107 7.2315 267° West  Level Estimated
02:29AM 52.4047 7.0422 267° West  Level Estimated
02:30AM 52.3984 6.8529 267° West  Level Estimated
02:31AM 52.3918 6.6637 267° West  Level Estimated
02:32AM 52.3849 6.4745 267° West  Level Estimated
02:33AM 52.3777 6.2854 267° West  Level Estimated
02:34AM 52.3702 6.0963 266° West  Level Estimated
02:35AM 52.3624 5.9073 266° West  Level Estimated
02:36AM 52.3543 5.7184 266° West  Level Estimated
02:37AM 52.3459 5.5296 266° West  Level Estimated
02:38AM 52.3371 5.3408 266° West  Level Estimated
02:39AM 52.3281 5.1521 266° West  Level Estimated
02:40AM 52.3188 4.9635 265° West  Level Estimated
02:41AM 52.3092 4.7749 265° West  Level Estimated
02:42AM 52.3086 4.7639 265° West  Level Estimated
02:43AM 52.3086 4.7639 North  Level Estimated
02:44AM 52.3086 4.7639 North  Level Estimated
02:45AM 52.3086 4.7639 North  Level Estimated
02:46AM 52.3086 4.7639 North  Level Estimated
02:47AM 52.3086 4.7639 North  Level Estimated
02:48AM 52.3086 4.7639 North  Level Estimated
02:48AM 52.5282 4.7813 North 130 150 2,900  Level FlightAware UK
02:48AM 52.4960 4.7530 208° Southwest 223 257 2,900 -120 Level FlightAware UK
02:49AM 52.4795 4.7537 178° South 174 200 2,800 -540 Descending FlightAware UK
02:49AM 52.4645 4.7545 178° South 174 200 2,600 -840 Descending FlightAware UK
02:49AM 52.4491 4.7523 185° South 174 200 2,300 -840 Descending FlightAware UK
02:50AM 52.4208 4.7489 184° South 149 171 1,800 -720 Descending FlightAware UK
02:52AM 52.3086 4.7639 175° South  Level Estimated